Time;durP1;ratioP1;P1;durP2;ratioP2;P2;SDS_P1;SDS_P2;PMS_P1;PMS_P2;Temp;Humidity;BMP_temperature;BMP_pressure;BME280_temperature;BME280_humidity;BME280_pressure;Samples;Min_cycle;Max_cycle;Signal;HPM_P1;HPM_P2
2023/06/18 00:00:23;;;;;;;9.90;5.80;;;;;;;18.82;72.84;100308.19;8306835;28;20316;-60
2023/06/18 00:04:23;;;;;;;8.40;6.15;;;;;;;18.73;72.42;100301.16;8321677;28;20041;-60
2023/06/18 00:08:24;;;;;;;7.22;5.40;;;;;;;18.68;72.60;100314.63;8308425;28;20510;-60
2023/06/18 00:12:24;;;;;;;7.28;6.10;;;;;;;18.74;72.18;100302.03;8309262;28;20037;-65
2023/06/18 00:16:24;;;;;;;10.82;5.60;;;;;;;18.80;71.58;100307.56;8305171;28;20076;-65
2023/06/18 00:20:25;;;;;;;8.20;5.43;;;;;;;18.85;71.73;100316.03;8310001;28;20072;-65
2023/06/18 00:24:25;;;;;;;8.30;5.38;;;;;;;18.79;71.69;100302.28;8306030;28;20041;-65
2023/06/18 00:28:28;;;;;;;7.50;5.50;;;;;;;18.86;71.57;100301.28;8306918;28;20132;-65
2023/06/18 00:32:29;;;;;;;13.38;5.45;;;;;;;18.94;70.61;100301.13;8311397;28;20087;-60
2023/06/18 00:36:30;;;;;;;7.90;5.95;;;;;;;19.11;69.99;100302.53;8308367;28;20133;-60
2023/06/18 00:40:30;;;;;;;9.35;5.72;;;;;;;18.88;71.48;100299.19;8308613;28;20408;-61
2023/06/18 00:44:31;;;;;;;10.13;5.75;;;;;;;18.96;70.74;100279.88;8309894;28;20058;-65
2023/06/18 00:48:35;;;;;;;9.13;5.85;;;;;;;18.82;72.26;100288.19;8308212;28;20050;-65
2023/06/18 00:52:36;;;;;;;13.70;6.90;;;;;;;18.57;73.02;100271.34;8306556;28;20042;-65
2023/06/18 00:56:37;;;;;;;8.80;5.57;;;;;;;18.58;72.65;100281.28;8305551;28;20464;-65
2023/06/18 01:00:38;;;;;;;7.82;6.25;;;;;;;18.53;72.57;100289.22;8308939;28;20060;-65
2023/06/18 01:04:38;;;;;;;12.18;6.38;;;;;;;18.50;72.56;100283.28;8308294;28;20045;-65
2023/06/18 01:08:40;;;;;;;8.10;5.63;;;;;;;18.52;72.25;100287.53;8306369;28;20484;-65
2023/06/18 01:12:45;;;;;;;9.70;5.50;;;;;;;18.41;72.64;100288.03;8309267;28;20476;-65
2023/06/18 01:16:47;;;;;;;13.43;5.80;;;;;;;18.16;73.91;100291.34;8306803;28;20029;-65
2023/06/18 01:20:49;;;;;;;7.97;5.78;;;;;;;18.02;74.06;100282.13;8306596;28;20385;-65
2023/06/18 01:24:51;;;;;;;8.38;6.00;;;;;;;17.92;74.58;100284.34;8304766;28;20522;-65
2023/06/18 01:28:58;;;;;;;9.18;6.30;;;;;;;17.89;74.54;100283.88;8307784;28;20053;-65
2023/06/18 01:32:59;;;;;;;7.97;6.10;;;;;;;17.87;74.57;100281.34;8308397;28;20131;-65
2023/06/18 01:37:26;;;;;;;9.65;6.13;;;;;;;17.84;75.18;100269.94;8306172;28;20057;-64
2023/06/18 01:41:31;;;;;;;9.57;6.45;;;;;;;17.78;75.46;100274.28;8306633;28;20046;-65
2023/06/18 01:45:39;;;;;;;15.38;6.57;;;;;;;17.76;75.61;100267.31;8306628;28;20168;-60
2023/06/18 01:49:43;;;;;;;11.20;6.32;;;;;;;17.66;75.94;100262.19;8305915;28;20532;-60
2023/06/18 01:53:46;;;;;;;10.57;6.78;;;;;;;17.74;75.37;100264.78;8305436;28;20071;-60
2023/06/18 01:57:47;;;;;;;10.73;7.00;;;;;;;17.74;76.49;100266.66;8303913;28;20034;-60
2023/06/18 02:01:48;;;;;;;14.63;7.30;;;;;;;17.77;75.67;100264.38;8307224;28;20072;-60
2023/06/18 02:05:48;;;;;;;13.35;7.45;;;;;;;17.76;75.57;100273.66;8305996;28;20054;-61
2023/06/18 02:09:50;;;;;;;13.88;6.80;;;;;;;17.73;75.39;100263.09;8306591;28;20443;-65
2023/06/18 02:13:50;;;;;;;12.75;6.25;;;;;;;17.83;75.35;100266.34;8307789;28;20056;-63
2023/06/18 02:17:50;;;;;;;8.80;5.88;;;;;;;17.82;74.94;100256.47;8323795;28;20042;-64
2023/06/18 02:21:52;;;;;;;14.18;5.80;;;;;;;17.72;75.91;100266.88;8304548;28;20050;-65
2023/06/18 02:25:53;;;;;;;9.68;5.85;;;;;;;17.70;75.57;100262.63;8304021;28;20428;-61
2023/06/18 02:29:53;;;;;;;6.97;5.35;;;;;;;17.66;75.34;100267.66;8306776;28;20411;-60
2023/06/18 02:33:54;;;;;;;12.48;6.32;;;;;;;17.55;76.38;100273.59;8327872;28;20049;-60
2023/06/18 02:37:55;;;;;;;12.57;6.75;;;;;;;17.43;77.66;100256.84;8306767;28;20566;-60
2023/06/18 02:41:56;;;;;;;10.70;6.53;;;;;;;17.39;76.96;100257.38;8307856;28;20633;-61
2023/06/18 02:45:57;;;;;;;13.15;6.30;;;;;;;17.41;76.51;100238.88;8307693;28;20135;-60
2023/06/18 02:49:57;;;;;;;12.40;6.57;;;;;;;17.33;76.54;100234.38;8307562;28;20045;-60
2023/06/18 02:53:59;;;;;;;12.35;6.20;;;;;;;17.32;76.29;100234.56;8311985;28;20041;-61
2023/06/18 02:58:02;;;;;;;12.57;6.38;;;;;;;17.37;76.06;100234.84;8310428;28;20038;-61
2023/06/18 03:02:04;;;;;;;10.20;6.20;;;;;;;17.40;75.47;100250.88;8312989;28;20049;-61
2023/06/18 03:06:05;;;;;;;9.25;6.30;;;;;;;17.38;75.56;100242.00;8311806;28;20053;-65
2023/06/18 03:10:06;;;;;;;10.45;5.93;;;;;;;17.32;75.99;100237.28;8314262;28;20048;-60
2023/06/18 03:14:07;;;;;;;12.20;6.55;;;;;;;17.21;76.72;100248.72;8310324;28;20092;-60
2023/06/18 03:18:08;;;;;;;12.25;7.50;;;;;;;17.07;76.80;100241.38;8312253;28;20065;-61
2023/06/18 03:22:10;;;;;;;9.52;6.28;;;;;;;16.91;77.66;100244.31;8310164;28;20037;-60
2023/06/18 03:26:12;;;;;;;9.82;6.88;;;;;;;16.84;77.39;100248.81;8310234;28;20089;-60
2023/06/18 03:30:13;;;;;;;12.40;6.97;;;;;;;16.88;77.19;100255.59;8310823;28;20045;-60
2023/06/18 03:34:14;;;;;;;9.60;6.63;;;;;;;16.84;77.31;100246.91;8313513;28;20048;-60
2023/06/18 03:38:16;;;;;;;9.82;6.72;;;;;;;16.86;77.25;100249.47;8310163;28;20042;-60
2023/06/18 03:42:16;;;;;;;13.93;6.63;;;;;;;16.87;77.09;100259.38;8310725;28;20120;-65
2023/06/18 03:46:17;;;;;;;11.35;7.28;;;;;;;17.02;76.75;100252.03;8308109;28;20496;-65
2023/06/18 03:50:17;;;;;;;9.30;6.57;;;;;;;16.96;76.72;100259.06;8313302;28;20073;-65
2023/06/18 03:54:18;;;;;;;10.32;6.85;;;;;;;16.96;76.61;100266.44;8309563;28;20043;-61
2023/06/18 03:58:19;;;;;;;12.07;6.43;;;;;;;16.97;76.46;100270.88;8309447;28;20041;-60
2023/06/18 04:02:21;;;;;;;12.75;7.05;;;;;;;16.96;77.56;100269.19;8308899;28;20049;-61
2023/06/18 04:06:24;;;;;;;10.82;6.85;;;;;;;16.99;77.22;100263.34;8311403;28;20045;-60
2023/06/18 04:10:24;;;;;;;10.27;7.30;;;;;;;16.99;77.93;100268.81;8309350;28;20045;-60
2023/06/18 04:14:25;;;;;;;8.18;6.32;;;;;;;17.05;77.28;100265.31;8307957;28;20046;-61
2023/06/18 04:18:26;;;;;;;10.00;6.57;;;;;;;17.09;77.35;100263.91;8310478;28;20050;-61
2023/06/18 04:22:27;;;;;;;8.35;6.35;;;;;;;17.25;76.70;100269.16;8306975;28;20146;-60
2023/06/18 04:26:27;;;;;;;8.68;6.20;;;;;;;17.36;76.95;100265.97;8311158;28;20037;-60
2023/06/18 04:30:28;;;;;;;11.10;6.35;;;;;;;17.50;76.63;100263.22;8306484;28;20038;-60
2023/06/18 04:34:29;;;;;;;9.45;6.18;;;;;;;17.73;76.17;100263.09;8308802;28;20588;-60
2023/06/18 04:38:31;;;;;;;9.35;6.00;;;;;;;18.11;75.16;100267.28;8309173;28;20496;-60
2023/06/18 04:42:31;;;;;;;7.20;5.20;;;;;;;18.29;73.64;100267.69;8307777;28;20388;-60
2023/06/18 04:46:33;;;;;;;8.45;6.15;;;;;;;18.26;74.64;100264.47;8305240;28;20108;-60
2023/06/18 04:50:35;;;;;;;8.40;6.07;;;;;;;18.42;74.88;100264.25;8309156;28;20090;-61
2023/06/18 04:54:37;;;;;;;8.93;5.38;;;;;;;18.52;73.26;100265.63;8323814;28;20150;-60
2023/06/18 04:58:39;;;;;;;6.50;5.55;;;;;;;18.75;71.20;100270.84;8307400;28;20030;-60
2023/06/18 05:02:40;;;;;;;7.75;4.78;;;;;;;19.04;70.77;100276.97;8307042;28;20041;-60
2023/06/18 05:06:41;;;;;;;9.50;5.47;;;;;;;19.04;71.88;100276.97;8306658;28;20040;-60
2023/06/18 05:10:42;;;;;;;9.95;5.68;;;;;;;18.92;72.95;100273.09;8304201;28;20423;-61
2023/06/18 05:14:43;;;;;;;10.65;5.45;;;;;;;19.18;72.33;100272.41;8302558;28;20045;-60
2023/06/18 05:18:43;;;;;;;7.00;4.70;;;;;;;19.37;72.11;100271.72;8303353;28;20492;-60
2023/06/18 05:22:47;;;;;;;6.90;5.13;;;;;;;19.43;72.61;100271.75;8305130;28;20038;-65
2023/06/18 05:26:49;;;;;;;8.77;5.72;;;;;;;19.56;71.51;100275.59;8303057;28;20042;-67
2023/06/18 05:30:50;;;;;;;7.63;5.68;;;;;;;19.64;71.63;100280.91;8308717;28;20516;-64
2023/06/18 05:34:51;;;;;;;9.77;6.10;;;;;;;19.66;71.43;100287.88;8304422;28;20448;-64
2023/06/18 05:38:53;;;;;;;10.80;6.40;;;;;;;19.73;71.98;100291.50;8306696;28;20459;-64
2023/06/18 05:42:54;;;;;;;11.18;6.65;;;;;;;19.77;71.96;100289.19;8305599;28;20474;-65
2023/06/18 05:46:55;;;;;;;10.05;5.70;;;;;;;19.75;71.23;100285.78;8304570;28;20127;-65
2023/06/18 05:50:56;;;;;;;9.75;5.60;;;;;;;19.74;71.34;100290.47;8301839;28;20096;-65
2023/06/18 05:54:57;;;;;;;7.78;5.57;;;;;;;19.85;70.46;100284.34;8301112;28;20041;-64
2023/06/18 05:58:58;;;;;;;7.45;5.60;;;;;;;20.08;70.39;100286.75;8305751;28;20044;-64
2023/06/18 06:03:04;;;;;;;13.55;6.00;;;;;;;20.40;68.88;100277.78;8306436;28;20045;-65
2023/06/18 06:07:05;;;;;;;10.98;5.45;;;;;;;20.85;67.93;100280.53;8304874;28;20124;-61
2023/06/18 06:11:06;;;;;;;8.20;5.60;;;;;;;21.12;65.21;100287.72;8303342;28;20041;-60
2023/06/18 06:15:09;;;;;;;12.20;6.00;;;;;;;21.38;64.06;100286.81;8302475;28;20559;-60
2023/06/18 06:19:10;;;;;;;9.35;5.13;;;;;;;21.76;63.92;100285.00;8300198;28;20393;-60
2023/06/18 06:23:10;;;;;;;6.18;4.50;;;;;;;21.77;61.97;100292.19;8298843;28;20037;-60
2023/06/18 06:27:11;;;;;;;6.43;5.25;;;;;;;21.85;61.72;100288.34;8299419;28;20061;-60
2023/06/18 06:31:13;;;;;;;9.57;4.80;;;;;;;22.16;62.10;100302.16;8300612;28;20034;-61
2023/06/18 06:35:13;;;;;;;9.10;4.60;;;;;;;22.33;59.22;100287.69;8304747;28;20179;-59
2023/06/18 06:39:16;;;;;;;8.65;4.53;;;;;;;22.32;60.05;100299.75;8304164;28;20133;-60
2023/06/18 06:43:18;;;;;;;7.15;4.75;;;;;;;22.87;58.32;100298.06;8280144;28;20405;-60
2023/06/18 06:47:38;;;;;;;4.65;4.15;;;;;;;23.32;57.04;100298.78;8309140;28;20500;-60
2023/06/18 06:51:54;;;;;;;10.57;4.90;;;;;;;23.37;57.49;100301.66;8304372;28;20045;-61
2023/06/18 06:55:55;;;;;;;10.98;5.75;;;;;;;23.44;55.67;100297.75;8302453;28;20049;-60
2023/06/18 06:59:57;;;;;;;7.47;4.57;;;;;;;23.78;58.15;100299.09;8306175;28;20034;-59
2023/06/18 07:03:57;;;;;;;7.00;4.63;;;;;;;24.02;57.93;100306.44;8304188;28;20046;-60
2023/06/18 07:07:58;;;;;;;9.18;4.95;;;;;;;24.45;58.02;100301.56;8306749;28;20049;-60
2023/06/18 07:11:58;;;;;;;5.60;4.63;;;;;;;24.63;57.76;100298.72;8309875;28;20049;-59
2023/06/18 07:15:58;;;;;;;8.50;5.30;;;;;;;24.68;56.69;100307.19;8305327;28;20037;-60
2023/06/18 07:19:59;;;;;;;5.60;4.50;;;;;;;24.92;55.34;100300.63;8301615;28;20096;-61
2023/06/18 07:23:59;;;;;;;7.17;4.57;;;;;;;24.94;54.70;100295.69;8301624;28;20300;-60
2023/06/18 07:28:00;;;;;;;6.28;4.57;;;;;;;24.90;53.95;100297.25;8302034;28;20301;-60
2023/06/18 07:32:00;;;;;;;7.00;5.57;;;;;;;25.05;56.01;100289.31;8305323;28;20582;-60
2023/06/18 07:36:01;;;;;;;6.22;4.97;;;;;;;24.93;53.98;100299.53;8304594;28;20077;-60
2023/06/18 07:40:02;;;;;;;5.45;4.65;;;;;;;25.32;54.81;100296.09;8313127;28;20068;-60
2023/06/18 07:44:02;;;;;;;9.25;4.70;;;;;;;25.53;53.52;100292.72;8309595;28;20507;-60
2023/06/18 07:48:03;;;;;;;7.38;4.65;;;;;;;25.55;53.51;100287.75;8310708;28;20367;-60
2023/06/18 07:52:04;;;;;;;6.15;5.05;;;;;;;25.91;52.24;100292.97;8310971;28;20056;-60
2023/06/18 07:56:05;;;;;;;4.57;4.18;;;;;;;26.25;51.69;100288.41;8305242;28;20067;-60
2023/06/18 08:00:06;;;;;;;7.97;4.10;;;;;;;26.52;51.55;100284.78;8307559;28;20041;-60
2023/06/18 08:04:15;;;;;;;7.90;4.55;;;;;;;26.74;50.36;100288.53;8309981;28;20038;-60
2023/06/18 08:08:15;;;;;;;11.23;4.35;;;;;;;27.27;50.28;100279.72;8310971;28;20046;-61
2023/06/18 08:12:16;;;;;;;8.85;4.10;;;;;;;27.60;48.30;100276.03;8307163;28;20052;-60
2023/06/18 08:16:17;;;;;;;8.13;4.43;;;;;;;27.59;47.30;100280.72;8303065;28;20053;-60
2023/06/18 08:20:18;;;;;;;10.30;4.90;;;;;;;27.41;48.92;100277.44;8306766;28;20291;-60
2023/06/18 08:24:18;;;;;;;10.15;4.78;;;;;;;27.72;48.76;100273.97;8302906;28;20046;-61
2023/06/18 08:28:20;;;;;;;6.28;4.57;;;;;;;27.78;49.52;100278.50;8298802;28;20045;-61
2023/06/18 08:32:20;;;;;;;5.70;4.32;;;;;;;27.52;48.46;100279.25;8305482;28;20657;-60
2023/06/18 08:36:21;;;;;;;9.05;4.45;;;;;;;27.63;48.89;100287.44;8294220;28;20487;-61
2023/06/18 08:40:25;;;;;;;4.97;4.35;;;;;;;28.09;51.86;100298.06;8306324;28;20101;-61
2023/06/18 08:44:27;;;;;;;5.65;4.05;;;;;;;28.56;51.72;100315.06;8303196;28;20052;-60
2023/06/18 08:48:29;;;;;;;8.90;4.43;;;;;;;28.19;52.16;100303.78;8295416;28;20045;-60
2023/06/18 08:52:30;;;;;;;6.47;4.13;;;;;;;28.60;51.01;100305.06;8303827;28;20037;-60
2023/06/18 08:56:33;;;;;;;6.18;4.50;;;;;;;29.21;50.13;100301.75;8295360;28;20202;-60
2023/06/18 09:00:34;;;;;;;5.13;4.03;;;;;;;29.37;51.01;100295.19;8300542;28;20048;-60
2023/06/18 09:04:35;;;;;;;7.47;4.57;;;;;;;29.90;47.27;100297.75;8298687;28;20042;-60
2023/06/18 09:08:37;;;;;;;8.40;4.22;;;;;;;29.35;47.38;100285.41;8299905;28;20586;-60
2023/06/18 09:12:37;;;;;;;9.23;4.35;;;;;;;28.88;46.90;100285.31;8309084;28;20379;-60
2023/06/18 09:16:38;;;;;;;6.25;4.80;;;;;;;28.92;47.16;100275.31;8300005;28;20048;-65
2023/06/18 09:20:39;;;;;;;8.30;4.60;;;;;;;28.87;45.73;100283.63;8298628;28;20042;-65
2023/06/18 09:24:40;;;;;;;10.02;5.25;;;;;;;29.11;47.77;100279.41;8299330;28;20124;-65
2023/06/18 09:28:40;;;;;;;5.03;4.53;;;;;;;29.76;45.65;100271.47;8301293;28;20041;-64
2023/06/18 09:32:48;;;;;;;5.78;4.38;;;;;;;30.15;45.79;100274.69;8298518;28;20102;-65
2023/06/18 09:36:50;;;;;;;6.10;3.83;;;;;;;31.15;47.00;100276.81;8296666;28;20109;-65
2023/06/18 09:40:51;;;;;;;10.80;4.53;;;;;;;30.44;44.05;100273.94;8299663;28;20049;-65
2023/06/18 09:44:53;;;;;;;9.05;4.13;;;;;;;29.80;45.09;100264.25;8301128;28;20074;-64
2023/06/18 09:48:54;;;;;;;8.00;4.15;;;;;;;29.66;45.22;100265.84;8294805;28;20460;-65
2023/06/18 09:52:58;;;;;;;8.70;4.43;;;;;;;29.95;46.53;100269.88;8296268;28;20501;-65
2023/06/18 09:57:02;;;;;;;9.57;4.63;;;;;;;30.30;45.17;100266.38;8294657;28;20687;-65
2023/06/18 10:01:03;;;;;;;9.82;5.95;;;;;;;30.31;45.91;100254.94;8302747;28;20034;-65
2023/06/18 10:05:04;;;;;;;14.32;4.60;;;;;;;31.65;44.17;100249.59;8303698;28;20049;-65
2023/06/18 10:09:06;;;;;;;16.58;6.63;;;;;;;32.58;41.89;100244.97;8304758;28;20129;-65
2023/06/18 10:13:11;;;;;;;5.93;4.25;;;;;;;33.54;41.13;100257.00;8303800;28;20033;-65
2023/06/18 10:17:23;;;;;;;9.13;4.53;;;;;;;34.39;39.48;100254.28;8301140;28;20508;-65
2023/06/18 10:21:24;;;;;;;9.45;4.50;;;;;;;33.00;40.23;100248.00;8298250;28;20041;-65
2023/06/18 10:25:25;;;;;;;6.18;4.07;;;;;;;31.41;41.89;100244.94;8301830;28;20120;-65
2023/06/18 10:29:26;;;;;;;7.03;4.97;;;;;;;31.43;44.60;100242.69;8300585;28;20041;-64
2023/06/18 10:33:28;;;;;;;5.18;4.68;;;;;;;31.77;42.71;100232.50;8302105;28;20045;-65
2023/06/18 10:37:31;;;;;;;5.60;4.60;;;;;;;31.39;40.93;100238.78;8321828;28;20034;-64
2023/06/18 10:41:32;;;;;;;4.45;4.05;;;;;;;31.66;41.33;100228.09;8307876;28;20041;-64
2023/06/18 10:45:32;;;;;;;5.65;4.18;;;;;;;31.11;42.18;100228.19;8306607;28;20041;-65
2023/06/18 10:49:33;;;;;;;7.43;4.80;;;;;;;31.38;41.76;100223.97;8294146;28;20510;-65
2023/06/18 10:53:33;;;;;;;6.20;4.43;;;;;;;31.48;43.06;100217.53;8301016;28;20045;-65
2023/06/18 11:01:59;;;;;;;6.93;4.35;;;;;;;31.16;42.70;100209.47;8313401;28;20402;-60
2023/06/18 11:06:01;;;;;;;5.40;4.60;;;;;;;31.21;43.49;100212.25;8304318;28;20041;-60
2023/06/18 11:10:04;;;;;;;5.35;4.28;;;;;;;31.56;42.70;100208.56;8304773;28;20038;-60
2023/06/18 11:14:19;;;;;;;7.82;4.78;;;;;;;31.87;42.78;100198.94;8305658;28;20038;-60
2023/06/18 11:18:22;;;;;;;6.45;4.85;;;;;;;31.89;41.03;100196.66;8305733;28;20069;-60
2023/06/18 11:22:23;;;;;;;5.28;4.20;;;;;;;32.01;40.63;100191.56;8315208;28;20068;-60
2023/06/18 11:26:23;;;;;;;10.48;4.13;;;;;;;31.87;40.19;100184.94;8306782;28;20049;-60
2023/06/18 11:30:24;;;;;;;4.93;4.15;;;;;;;31.55;40.69;100184.50;8315114;28;20034;-60
2023/06/18 11:34:25;;;;;;;5.20;4.47;;;;;;;31.36;41.82;100175.06;8307794;28;20546;-61
2023/06/18 11:38:26;;;;;;;6.38;4.20;;;;;;;31.47;41.83;100171.13;8309913;28;20453;-60
2023/06/18 11:42:27;;;;;;;7.35;4.00;;;;;;;31.71;42.52;100172.97;8316631;28;20052;-60
2023/06/18 11:46:30;;;;;;;8.68;4.38;;;;;;;31.35;41.50;100168.63;8312761;28;20623;-61
2023/06/18 11:50:31;;;;;;;5.55;4.80;;;;;;;31.10;41.38;100159.50;8304122;28;20412;-60
2023/06/18 11:54:35;;;;;;;10.10;4.33;;;;;;;30.82;41.55;100162.88;8298654;28;20045;-61
2023/06/18 11:58:36;;;;;;;5.78;4.80;;;;;;;30.78;41.68;100161.78;8291291;28;20296;-60
2023/06/18 12:02:39;;;;;;;4.40;3.95;;;;;;;30.60;40.51;100154.78;8296197;28;20038;-61
2023/06/18 12:06:39;;;;;;;6.67;4.43;;;;;;;30.50;42.68;100165.13;8295194;28;20065;-62
2023/06/18 12:10:42;;;;;;;7.85;3.95;;;;;;;30.48;41.81;100156.16;8288451;28;20042;-61
2023/06/18 12:15:22;;;;;;;4.55;4.03;;;;;;;30.08;44.62;100154.16;8277258;28;20062;-61
2023/06/18 12:19:23;;;;;;;5.47;4.43;;;;;;;30.03;41.87;100143.84;8272905;28;20046;-62
2023/06/18 12:23:27;;;;;;;5.60;4.55;;;;;;;29.88;43.36;100141.03;8275396;28;20038;-61
2023/06/18 12:27:28;;;;;;;7.53;4.80;;;;;;;29.68;45.88;100134.56;8270599;28;20034;-61
2023/06/18 12:31:29;;;;;;;5.82;4.20;;;;;;;29.62;46.53;100136.50;8275950;28;20124;-61
2023/06/18 12:35:30;;;;;;;9.18;4.53;;;;;;;29.89;45.73;100125.16;8279846;28;20045;-63
2023/06/18 12:39:31;;;;;;;7.80;4.80;;;;;;;30.05;45.40;100124.91;8275309;28;20056;-61
2023/06/18 12:43:39;;;;;;;5.47;4.95;;;;;;;30.64;44.57;100121.56;8273813;28;20030;-61
2023/06/18 12:47:42;;;;;;;5.03;4.47;;;;;;;30.70;45.48;100114.88;8275648;28;20065;-66
2023/06/18 12:51:44;;;;;;;4.80;4.38;;;;;;;30.79;44.97;100107.63;8276296;28;20462;-66
2023/06/18 12:55:47;;;;;;;8.63;4.88;;;;;;;30.50;44.73;100110.16;8270916;28;20034;-66
2023/06/18 12:59:50;;;;;;;7.40;5.15;;;;;;;30.69;45.72;100096.41;8272959;28;20103;-60
2023/06/18 13:03:52;;;;;;;8.45;4.90;;;;;;;31.23;45.42;100103.00;8276326;28;20034;-61
2023/06/18 13:07:53;;;;;;;8.68;5.25;;;;;;;31.36;44.58;100085.66;8279808;28;20400;-61
2023/06/18 13:11:54;;;;;;;6.82;4.53;;;;;;;31.40;43.77;100093.16;8274054;28;20045;-61
2023/06/18 13:15:55;;;;;;;7.43;5.07;;;;;;;31.38;43.02;100089.00;8274143;28;20125;-61
2023/06/18 13:19:56;;;;;;;6.72;4.57;;;;;;;31.40;40.55;100082.00;8272384;28;20034;-61
2023/06/18 13:23:57;;;;;;;9.05;4.93;;;;;;;31.50;42.16;100069.94;8275272;28;20045;-60
2023/06/18 13:27:58;;;;;;;10.55;5.00;;;;;;;31.34;41.09;100077.53;8270681;28;20034;-60
2023/06/18 13:31:59;;;;;;;6.15;4.50;;;;;;;31.49;41.19;100062.66;8274288;28;20042;-60
2023/06/18 13:36:00;;;;;;;6.47;5.25;;;;;;;31.57;40.75;100064.84;8271243;28;20493;-60
2023/06/18 13:40:01;;;;;;;6.85;4.95;;;;;;;31.69;40.78;100060.59;8276478;28;20140;-61
2023/06/18 13:44:02;;;;;;;6.57;4.75;;;;;;;31.65;41.09;100051.09;8271762;28;20512;-60
2023/06/18 13:48:02;;;;;;;7.38;4.95;;;;;;;31.55;39.59;100044.72;8273661;28;20515;-60
2023/06/18 13:52:04;;;;;;;6.97;5.20;;;;;;;31.47;39.94;100045.34;8274941;28;20061;-67
2023/06/18 13:56:05;;;;;;;7.95;4.97;;;;;;;31.35;40.36;100028.09;8271445;28;20038;-67
2023/06/18 14:00:07;;;;;;;9.38;5.05;;;;;;;31.61;40.98;100027.63;8273636;28;20122;-60
2023/06/18 14:04:21;;;;;;;6.88;5.57;;;;;;;31.67;40.42;100025.63;8383992;27;20390;-60
2023/06/18 14:08:22;;;;;;;7.40;4.88;;;;;;;31.49;40.57;100015.13;8380553;27;20048;-67
2023/06/18 14:12:24;;;;;;;5.72;5.03;;;;;;;31.35;41.00;100008.53;8382049;27;20043;-66
2023/06/18 14:16:25;;;;;;;6.50;5.10;;;;;;;31.31;41.50;100011.06;8380813;27;20101;-66
2023/06/18 14:20:26;;;;;;;6.00;5.22;;;;;;;31.25;42.47;100000.19;8380213;27;20041;-67
2023/06/18 14:24:26;;;;;;;8.27;5.03;;;;;;;31.41;40.88;100005.41;8375874;27;20738;-67
2023/06/18 14:28:27;;;;;;;8.15;5.07;;;;;;;31.49;41.62;100006.75;8382618;27;20028;-67
2023/06/18 14:32:28;;;;;;;7.65;4.82;;;;;;;31.39;40.26;100004.03;8376551;27;20039;-67
2023/06/18 14:36:28;;;;;;;6.32;5.43;;;;;;;31.51;41.00;100004.50;8378085;27;20032;-67
2023/06/18 14:40:29;;;;;;;7.88;5.20;;;;;;;31.36;43.51;100001.81;8378731;28;20032;-66
2023/06/18 14:44:29;;;;;;;6.38;5.18;;;;;;;31.46;41.74;99998.94;8380710;27;20036;-67
2023/06/18 14:48:31;;;;;;;8.63;5.60;;;;;;;31.76;42.92;100001.53;8375137;27;20260;-68
2023/06/18 14:52:31;;;;;;;7.53;4.95;;;;;;;31.86;40.92;99995.88;8363247;27;20029;-68
2023/06/18 14:56:32;;;;;;;9.80;4.80;;;;;;;31.86;42.30;99995.88;8375277;27;20076;-68
2023/06/18 15:00:33;;;;;;;8.75;5.53;;;;;;;31.92;41.93;99998.34;8371164;28;20045;-68
2023/06/18 15:04:33;;;;;;;6.50;5.40;;;;;;;31.77;42.38;99994.78;8371164;28;20480;-68
2023/06/18 15:08:34;;;;;;;5.68;5.00;;;;;;;31.53;44.09;99991.91;8373122;28;20049;-63
2023/06/18 15:12:34;;;;;;;5.07;4.55;;;;;;;31.36;42.66;99982.25;8361143;28;20046;-64
2023/06/18 15:16:35;;;;;;;6.17;4.70;;;;;;;31.14;42.16;99970.63;8350714;28;20529;-64
2023/06/18 15:20:38;;;;;;;6.97;5.95;;;;;;;31.09;41.58;99965.06;8340910;28;20781;-64
2023/06/18 15:24:38;;;;;;;6.18;5.00;;;;;;;31.42;41.36;99967.97;8344732;28;20049;-65
2023/06/18 15:28:39;;;;;;;6.10;5.05;;;;;;;31.38;42.66;99971.63;8345869;28;20064;-65
2023/06/18 15:32:39;;;;;;;7.53;4.40;;;;;;;31.21;42.91;99962.75;8348992;28;20052;-64
2023/06/18 15:36:40;;;;;;;5.00;4.50;;;;;;;31.02;44.28;99965.38;8347031;28;20040;-64
2023/06/18 15:40:40;;;;;;;5.63;4.83;;;;;;;31.14;44.43;99970.63;8349545;28;20053;-64
2023/06/18 15:44:41;;;;;;;6.35;4.90;;;;;;;31.19;44.64;99962.22;8346787;28;20288;-64
2023/06/18 15:48:43;;;;;;;5.88;5.18;;;;;;;31.17;44.09;99964.47;8349710;28;20488;-64
2023/06/18 15:52:44;;;;;;;7.93;4.85;;;;;;;31.15;44.79;99961.09;8346813;28;20730;-64
2023/06/18 15:56:44;;;;;;;9.45;4.63;;;;;;;30.91;44.21;99960.13;8344196;28;20044;-64
2023/06/18 16:00:45;;;;;;;8.60;5.32;;;;;;;30.68;44.90;99957.97;8346645;28;20040;-64
2023/06/18 16:04:46;;;;;;;6.30;5.13;;;;;;;30.52;44.77;99953.56;8347150;28;20084;-64
2023/06/18 16:08:46;;;;;;;6.40;5.07;;;;;;;30.55;44.34;99956.59;8341610;28;20048;-63
2023/06/18 16:12:46;;;;;;;8.77;5.30;;;;;;;30.51;44.98;99955.53;8352896;28;20275;-64
2023/06/18 16:16:47;;;;;;;8.93;5.90;;;;;;;30.50;43.97;99950.22;8346965;28;20056;-64
2023/06/18 16:20:48;;;;;;;10.68;5.75;;;;;;;30.33;45.02;99948.59;8364540;28;20037;-64
2023/06/18 16:24:49;;;;;;;9.90;5.30;;;;;;;30.33;44.31;99931.88;8359660;28;20499;-64
2023/06/18 16:28:50;;;;;;;8.13;5.50;;;;;;;30.32;44.33;99932.16;8350072;28;20086;-64
2023/06/18 16:32:51;;;;;;;10.02;5.82;;;;;;;30.31;44.15;99928.50;8345846;28;20622;-64
2023/06/18 16:36:51;;;;;;;6.55;5.57;;;;;;;30.29;44.99;99929.94;8362997;28;20421;-64
2023/06/18 16:40:52;;;;;;;8.55;5.35;;;;;;;30.45;44.45;99923.16;8347542;28;20037;-65
2023/06/18 16:44:52;;;;;;;5.85;5.30;;;;;;;30.30;45.60;99926.84;8336126;28;20046;-65
2023/06/18 16:48:52;;;;;;;6.05;5.45;;;;;;;30.30;45.29;99926.00;8339093;28;20041;-62
2023/06/18 16:52:53;;;;;;;7.13;5.13;;;;;;;30.26;45.51;99914.59;8345460;28;20046;-62
2023/06/18 16:56:53;;;;;;;7.78;5.53;;;;;;;30.19;45.86;99911.25;8339966;28;20060;-62
2023/06/18 17:00:54;;;;;;;6.25;5.75;;;;;;;30.19;45.65;99913.22;8368099;28;20468;-62
2023/06/18 17:04:55;;;;;;;8.23;5.35;;;;;;;30.11;45.97;99906.25;8344856;28;20049;-62
2023/06/18 17:08:55;;;;;;;6.03;5.03;;;;;;;30.02;47.03;99902.34;8341798;28;20125;-62
2023/06/18 17:12:56;;;;;;;6.10;5.10;;;;;;;29.99;46.06;99897.34;8343681;28;20171;-61
2023/06/18 17:16:56;;;;;;;6.38;5.38;;;;;;;29.88;45.60;99901.25;8373685;28;20056;-61
2023/06/18 17:20:58;;;;;;;5.93;5.35;;;;;;;29.87;45.69;99888.44;8379102;28;20534;-62
2023/06/18 17:24:59;;;;;;;7.88;6.15;;;;;;;29.89;45.69;99891.75;8377164;28;20397;-61
2023/06/18 17:29:00;;;;;;;12.93;5.78;;;;;;;29.68;45.80;99890.16;8342407;28;20121;-61
2023/06/18 17:33:01;;;;;;;7.03;6.15;;;;;;;29.77;45.64;99877.31;8344712;28;20041;-62
2023/06/18 17:37:02;;;;;;;6.05;5.25;;;;;;;29.67;46.48;99877.31;8344858;28;20060;-61
2023/06/18 17:41:02;;;;;;;9.73;6.00;;;;;;;29.56;46.69;99881.22;8346819;28;20041;-61
2023/06/18 17:45:03;;;;;;;7.30;5.03;;;;;;;29.46;46.74;99870.03;8365357;28;20087;-61
2023/06/18 17:49:04;;;;;;;8.35;5.90;;;;;;;29.35;47.43;99868.38;8338114;28;20048;-61
2023/06/18 17:53:04;;;;;;;6.75;6.13;;;;;;;29.22;47.99;99868.97;8334326;28;20087;-61
2023/06/18 17:57:05;;;;;;;8.30;5.72;;;;;;;29.19;47.83;99869.50;8335541;28;20090;-61
2023/06/18 18:01:06;;;;;;;6.20;5.43;;;;;;;29.08;48.26;99862.25;8346474;28;20120;-60
2023/06/18 18:05:07;;;;;;;7.78;5.60;;;;;;;29.13;48.17;99865.03;8346436;28;20043;-67
2023/06/18 18:09:08;;;;;;;10.05;6.28;;;;;;;29.08;49.00;99856.69;8341864;28;20045;-67
2023/06/18 18:13:08;;;;;;;7.00;5.40;;;;;;;29.03;48.78;99869.72;8330764;28;20045;-67
2023/06/18 18:17:09;;;;;;;7.22;5.30;;;;;;;28.96;48.65;99864.44;8343745;28;20038;-67
2023/06/18 18:21:09;;;;;;;12.45;6.30;;;;;;;28.89;48.72;99858.28;8327534;28;20037;-67
2023/06/18 18:25:11;;;;;;;9.23;5.88;;;;;;;28.77;49.04;99860.50;8325701;28;20039;-67
2023/06/18 18:29:11;;;;;;;9.43;5.43;;;;;;;28.63;49.54;99853.78;8335045;28;20132;-67
2023/06/18 18:33:12;;;;;;;6.18;5.38;;;;;;;28.56;49.68;99853.19;8332028;28;20115;-67
2023/06/18 18:37:12;;;;;;;6.97;6.28;;;;;;;28.52;49.97;99852.91;8337163;28;20687;-67
2023/06/18 18:41:14;;;;;;;13.00;6.25;;;;;;;28.49;49.97;99852.63;8340993;28;20044;-67
2023/06/18 18:45:15;;;;;;;9.63;5.65;;;;;;;28.43;50.24;99842.56;8333722;28;20075;-67